sensor_id;sensor_type;location;lat;lon;timestamp;P1;durP1;ratioP1;P2;durP2;ratioP2
8458;SDS011;4266;48.816;9.154;2023-05-16T00:01:14;17.10;;;15.30;;
8458;SDS011;4266;48.816;9.154;2023-05-16T00:03:40;17.60;;;15.90;;
8458;SDS011;4266;48.816;9.154;2023-05-16T00:06:07;18.40;;;15.50;;
8458;SDS011;4266;48.816;9.154;2023-05-16T00:08:32;18.00;;;16.10;;
8458;SDS011;4266;48.816;9.154;2023-05-16T00:10:58;19.37;;;15.70;;
8458;SDS011;4266;48.816;9.154;2023-05-16T00:13:24;17.60;;;15.70;;
8458;SDS011;4266;48.816;9.154;2023-05-16T00:15:50;17.83;;;16.07;;
8458;SDS011;4266;48.816;9.154;2023-05-16T00:18:15;18.33;;;16.43;;
8458;SDS011;4266;48.816;9.154;2023-05-16T00:20:41;21.63;;;16.87;;
8458;SDS011;4266;48.816;9.154;2023-05-16T00:23:07;18.87;;;17.07;;
8458;SDS011;4266;48.816;9.154;2023-05-16T00:25:33;19.00;;;17.17;;
8458;SDS011;4266;48.816;9.154;2023-05-16T00:27:59;21.47;;;18.83;;
8458;SDS011;4266;48.816;9.154;2023-05-16T00:30:25;19.77;;;17.93;;
8458;SDS011;4266;48.816;9.154;2023-05-16T00:32:53;20.77;;;17.67;;
8458;SDS011;4266;48.816;9.154;2023-05-16T00:35:18;22.40;;;20.10;;
8458;SDS011;4266;48.816;9.154;2023-05-16T00:37:43;24.37;;;20.17;;
8458;SDS011;4266;48.816;9.154;2023-05-16T00:40:09;23.10;;;20.73;;
8458;SDS011;4266;48.816;9.154;2023-05-16T00:42:35;23.20;;;20.93;;
8458;SDS011;4266;48.816;9.154;2023-05-16T00:45:02;26.17;;;21.40;;
8458;SDS011;4266;48.816;9.154;2023-05-16T00:47:29;22.77;;;20.67;;
8458;SDS011;4266;48.816;9.154;2023-05-16T00:49:54;23.83;;;21.43;;
8458;SDS011;4266;48.816;9.154;2023-05-16T00:52:20;25.50;;;22.90;;
8458;SDS011;4266;48.816;9.154;2023-05-16T00:54:46;25.03;;;22.43;;
8458;SDS011;4266;48.816;9.154;2023-05-16T00:57:11;24.97;;;22.33;;
8458;SDS011;4266;48.816;9.154;2023-05-16T00:59:37;28.03;;;22.87;;
8458;SDS011;4266;48.816;9.154;2023-05-16T01:02:03;26.07;;;23.37;;
8458;SDS011;4266;48.816;9.154;2023-05-16T01:04:29;25.40;;;22.73;;
8458;SDS011;4266;48.816;9.154;2023-05-16T01:06:55;26.43;;;23.67;;
8458;SDS011;4266;48.816;9.154;2023-05-16T01:09:20;28.10;;;24.40;;
8458;SDS011;4266;48.816;9.154;2023-05-16T01:12:56;27.57;;;24.47;;
8458;SDS011;4266;48.816;9.154;2023-05-16T01:14:37;27.83;;;24.43;;
8458;SDS011;4266;48.816;9.154;2023-05-16T01:17:20;28.13;;;25.10;;
8458;SDS011;4266;48.816;9.154;2023-05-16T01:20:08;28.47;;;25.30;;
8458;SDS011;4266;48.816;9.154;2023-05-16T01:22:57;30.20;;;26.43;;
8458;SDS011;4266;48.816;9.154;2023-05-16T01:28:04;31.60;;;28.03;;
8458;SDS011;4266;48.816;9.154;2023-05-16T01:30:32;34.67;;;29.70;;
8458;SDS011;4266;48.816;9.154;2023-05-16T01:32:57;35.93;;;29.50;;
8458;SDS011;4266;48.816;9.154;2023-05-16T01:35:22;36.77;;;29.97;;
8458;SDS011;4266;48.816;9.154;2023-05-16T01:37:52;37.47;;;31.50;;
8458;SDS011;4266;48.816;9.154;2023-05-16T01:40:22;39.43;;;31.67;;
8458;SDS011;4266;48.816;9.154;2023-05-16T01:42:47;37.57;;;29.70;;
8458;SDS011;4266;48.816;9.154;2023-05-16T01:45:17;38.90;;;31.87;;
8458;SDS011;4266;48.816;9.154;2023-05-16T01:47:40;38.87;;;32.10;;
8458;SDS011;4266;48.816;9.154;2023-05-16T01:50:15;41.73;;;30.97;;
8458;SDS011;4266;48.816;9.154;2023-05-16T01:52:44;44.57;;;32.93;;
8458;SDS011;4266;48.816;9.154;2023-05-16T01:55:25;46.20;;;32.10;;
8458;SDS011;4266;48.816;9.154;2023-05-16T01:57:41;42.27;;;32.90;;
8458;SDS011;4266;48.816;9.154;2023-05-16T02:00:08;41.50;;;32.23;;
8458;SDS011;4266;48.816;9.154;2023-05-16T02:02:34;41.93;;;33.37;;
8458;SDS011;4266;48.816;9.154;2023-05-16T02:05:01;41.47;;;33.23;;
8458;SDS011;4266;48.816;9.154;2023-05-16T02:07:27;40.07;;;32.70;;
8458;SDS011;4266;48.816;9.154;2023-05-16T02:09:52;44.73;;;33.43;;
8458;SDS011;4266;48.816;9.154;2023-05-16T02:12:18;45.40;;;32.67;;
8458;SDS011;4266;48.816;9.154;2023-05-16T02:14:44;43.27;;;33.57;;
8458;SDS011;4266;48.816;9.154;2023-05-16T02:17:09;41.30;;;33.17;;
8458;SDS011;4266;48.816;9.154;2023-05-16T02:19:35;44.13;;;34.97;;
8458;SDS011;4266;48.816;9.154;2023-05-16T02:22:00;39.87;;;33.17;;
8458;SDS011;4266;48.816;9.154;2023-05-16T02:24:26;46.60;;;34.37;;
8458;SDS011;4266;48.816;9.154;2023-05-16T02:26:53;40.63;;;33.63;;
8458;SDS011;4266;48.816;9.154;2023-05-16T02:29:18;44.37;;;34.30;;
8458;SDS011;4266;48.816;9.154;2023-05-16T02:31:45;44.23;;;34.07;;
8458;SDS011;4266;48.816;9.154;2023-05-16T02:34:10;44.20;;;34.47;;
8458;SDS011;4266;48.816;9.154;2023-05-16T02:36:36;42.80;;;34.83;;
8458;SDS011;4266;48.816;9.154;2023-05-16T02:39:02;49.47;;;36.97;;
8458;SDS011;4266;48.816;9.154;2023-05-16T02:41:27;50.63;;;34.83;;
8458;SDS011;4266;48.816;9.154;2023-05-16T02:43:53;48.20;;;34.90;;
8458;SDS011;4266;48.816;9.154;2023-05-16T02:46:20;48.47;;;37.07;;
8458;SDS011;4266;48.816;9.154;2023-05-16T02:49:00;48.07;;;36.07;;
8458;SDS011;4266;48.816;9.154;2023-05-16T02:51:26;48.63;;;37.07;;
8458;SDS011;4266;48.816;9.154;2023-05-16T02:53:52;53.50;;;36.93;;
8458;SDS011;4266;48.816;9.154;2023-05-16T02:56:17;49.37;;;35.93;;
8458;SDS011;4266;48.816;9.154;2023-05-16T02:58:45;53.53;;;39.03;;
8458;SDS011;4266;48.816;9.154;2023-05-16T03:01:09;52.33;;;39.70;;
8458;SDS011;4266;48.816;9.154;2023-05-16T03:03:35;53.87;;;39.40;;
8458;SDS011;4266;48.816;9.154;2023-05-16T03:06:00;55.57;;;39.03;;
8458;SDS011;4266;48.816;9.154;2023-05-16T03:08:26;55.57;;;40.40;;
8458;SDS011;4266;48.816;9.154;2023-05-16T03:10:52;55.67;;;40.27;;
8458;SDS011;4266;48.816;9.154;2023-05-16T03:13:18;58.80;;;41.13;;
8458;SDS011;4266;48.816;9.154;2023-05-16T03:15:44;52.33;;;39.13;;
8458;SDS011;4266;48.816;9.154;2023-05-16T03:18:09;62.00;;;42.47;;
8458;SDS011;4266;48.816;9.154;2023-05-16T03:20:36;66.93;;;42.53;;
8458;SDS011;4266;48.816;9.154;2023-05-16T03:23:01;61.13;;;42.83;;
8458;SDS011;4266;48.816;9.154;2023-05-16T03:25:27;65.07;;;42.00;;
8458;SDS011;4266;48.816;9.154;2023-05-16T03:27:53;64.90;;;41.33;;
8458;SDS011;4266;48.816;9.154;2023-05-16T03:30:18;65.10;;;43.40;;
8458;SDS011;4266;48.816;9.154;2023-05-16T03:32:44;71.73;;;44.87;;
8458;SDS011;4266;48.816;9.154;2023-05-16T03:35:10;74.20;;;45.70;;
8458;SDS011;4266;48.816;9.154;2023-05-16T03:37:35;71.73;;;45.50;;
8458;SDS011;4266;48.816;9.154;2023-05-16T03:40:01;77.73;;;46.97;;
8458;SDS011;4266;48.816;9.154;2023-05-16T03:42:27;78.53;;;46.57;;
8458;SDS011;4266;48.816;9.154;2023-05-16T03:44:52;73.30;;;45.83;;
8458;SDS011;4266;48.816;9.154;2023-05-16T03:47:18;78.10;;;46.87;;
8458;SDS011;4266;48.816;9.154;2023-05-16T03:49:44;80.27;;;47.47;;
8458;SDS011;4266;48.816;9.154;2023-05-16T03:52:09;82.83;;;47.73;;
8458;SDS011;4266;48.816;9.154;2023-05-16T03:54:35;75.03;;;47.93;;
8458;SDS011;4266;48.816;9.154;2023-05-16T03:57:02;79.37;;;46.70;;
8458;SDS011;4266;48.816;9.154;2023-05-16T03:59:28;80.70;;;48.07;;
8458;SDS011;4266;48.816;9.154;2023-05-16T04:01:53;76.47;;;47.93;;
8458;SDS011;4266;48.816;9.154;2023-05-16T04:04:19;83.83;;;49.50;;
8458;SDS011;4266;48.816;9.154;2023-05-16T04:06:45;76.80;;;47.67;;
8458;SDS011;4266;48.816;9.154;2023-05-16T04:09:10;78.57;;;47.67;;
8458;SDS011;4266;48.816;9.154;2023-05-16T04:11:36;76.07;;;48.13;;
8458;SDS011;4266;48.816;9.154;2023-05-16T04:14:02;77.67;;;48.10;;
8458;SDS011;4266;48.816;9.154;2023-05-16T04:16:27;76.97;;;45.63;;
8458;SDS011;4266;48.816;9.154;2023-05-16T04:18:53;79.93;;;48.73;;
8458;SDS011;4266;48.816;9.154;2023-05-16T04:21:19;74.90;;;46.30;;
8458;SDS011;4266;48.816;9.154;2023-05-16T04:23:44;72.67;;;46.20;;
8458;SDS011;4266;48.816;9.154;2023-05-16T04:26:10;75.03;;;47.50;;
8458;SDS011;4266;48.816;9.154;2023-05-16T04:28:37;68.47;;;45.93;;
8458;SDS011;4266;48.816;9.154;2023-05-16T04:31:02;70.00;;;46.77;;
8458;SDS011;4266;48.816;9.154;2023-05-16T04:33:28;70.50;;;46.13;;
8458;SDS011;4266;48.816;9.154;2023-05-16T04:35:54;72.97;;;47.27;;
8458;SDS011;4266;48.816;9.154;2023-05-16T04:38:20;74.50;;;46.87;;
8458;SDS011;4266;48.816;9.154;2023-05-16T04:40:46;72.10;;;46.47;;
8458;SDS011;4266;48.816;9.154;2023-05-16T04:43:12;68.67;;;46.20;;
8458;SDS011;4266;48.816;9.154;2023-05-16T04:45:38;68.20;;;44.70;;
8458;SDS011;4266;48.816;9.154;2023-05-16T04:48:04;62.90;;;46.20;;
8458;SDS011;4266;48.816;9.154;2023-05-16T04:50:30;73.23;;;45.90;;
8458;SDS011;4266;48.816;9.154;2023-05-16T04:52:56;67.37;;;44.20;;
8458;SDS011;4266;48.816;9.154;2023-05-16T04:55:22;70.47;;;45.73;;
8458;SDS011;4266;48.816;9.154;2023-05-16T04:57:47;67.53;;;44.87;;
8458;SDS011;4266;48.816;9.154;2023-05-16T05:00:14;63.43;;;45.03;;
8458;SDS011;4266;48.816;9.154;2023-05-16T05:02:40;61.50;;;42.60;;
8458;SDS011;4266;48.816;9.154;2023-05-16T05:05:06;61.80;;;43.07;;
8458;SDS011;4266;48.816;9.154;2023-05-16T05:07:33;58.67;;;42.83;;
8458;SDS011;4266;48.816;9.154;2023-05-16T05:09:59;65.17;;;43.13;;
8458;SDS011;4266;48.816;9.154;2023-05-16T05:12:24;60.63;;;43.83;;
8458;SDS011;4266;48.816;9.154;2023-05-16T05:14:50;60.37;;;43.13;;
8458;SDS011;4266;48.816;9.154;2023-05-16T05:17:16;60.70;;;42.43;;
8458;SDS011;4266;48.816;9.154;2023-05-16T05:19:41;61.93;;;43.43;;
8458;SDS011;4266;48.816;9.154;2023-05-16T05:22:07;59.30;;;44.03;;
8458;SDS011;4266;48.816;9.154;2023-05-16T05:24:33;59.77;;;43.63;;
8458;SDS011;4266;48.816;9.154;2023-05-16T05:26:58;60.10;;;43.77;;
8458;SDS011;4266;48.816;9.154;2023-05-16T05:29:24;61.57;;;44.23;;
8458;SDS011;4266;48.816;9.154;2023-05-16T05:31:50;64.57;;;44.40;;
8458;SDS011;4266;48.816;9.154;2023-05-16T05:34:16;60.77;;;43.17;;
8458;SDS011;4266;48.816;9.154;2023-05-16T05:36:43;60.93;;;44.87;;
8458;SDS011;4266;48.816;9.154;2023-05-16T05:39:09;59.73;;;42.47;;
8458;SDS011;4266;48.816;9.154;2023-05-16T05:41:36;55.90;;;43.50;;
8458;SDS011;4266;48.816;9.154;2023-05-16T05:44:01;56.17;;;42.20;;
8458;SDS011;4266;48.816;9.154;2023-05-16T05:46:27;58.07;;;42.60;;
8458;SDS011;4266;48.816;9.154;2023-05-16T05:48:52;55.73;;;41.13;;
8458;SDS011;4266;48.816;9.154;2023-05-16T05:51:18;55.37;;;42.43;;
8458;SDS011;4266;48.816;9.154;2023-05-16T05:53:44;57.03;;;42.77;;
8458;SDS011;4266;48.816;9.154;2023-05-16T05:56:09;53.27;;;40.80;;
8458;SDS011;4266;48.816;9.154;2023-05-16T05:58:35;55.83;;;42.33;;
8458;SDS011;4266;48.816;9.154;2023-05-16T06:01:01;53.77;;;41.10;;
8458;SDS011;4266;48.816;9.154;2023-05-16T06:03:27;55.33;;;41.07;;
8458;SDS011;4266;48.816;9.154;2023-05-16T06:05:53;52.23;;;40.07;;
8458;SDS011;4266;48.816;9.154;2023-05-16T06:08:20;58.57;;;41.10;;
8458;SDS011;4266;48.816;9.154;2023-05-16T06:10:46;52.00;;;38.87;;
8458;SDS011;4266;48.816;9.154;2023-05-16T06:13:11;48.80;;;38.83;;
8458;SDS011;4266;48.816;9.154;2023-05-16T06:15:37;53.03;;;39.00;;
8458;SDS011;4266;48.816;9.154;2023-05-16T06:18:04;48.90;;;38.50;;
8458;SDS011;4266;48.816;9.154;2023-05-16T06:20:29;48.63;;;38.60;;
8458;SDS011;4266;48.816;9.154;2023-05-16T06:22:55;51.70;;;37.47;;
8458;SDS011;4266;48.816;9.154;2023-05-16T06:25:21;50.50;;;36.70;;
8458;SDS011;4266;48.816;9.154;2023-05-16T06:27:46;45.07;;;36.77;;
8458;SDS011;4266;48.816;9.154;2023-05-16T06:30:12;46.00;;;36.33;;
8458;SDS011;4266;48.816;9.154;2023-05-16T06:32:38;43.30;;;35.30;;
8458;SDS011;4266;48.816;9.154;2023-05-16T06:35:04;44.43;;;35.67;;
8458;SDS011;4266;48.816;9.154;2023-05-16T06:37:30;44.23;;;34.47;;
8458;SDS011;4266;48.816;9.154;2023-05-16T06:39:56;47.07;;;34.90;;
8458;SDS011;4266;48.816;9.154;2023-05-16T06:42:22;42.23;;;33.97;;
8458;SDS011;4266;48.816;9.154;2023-05-16T06:44:47;41.50;;;34.20;;
8458;SDS011;4266;48.816;9.154;2023-05-16T06:47:14;44.20;;;33.77;;
8458;SDS011;4266;48.816;9.154;2023-05-16T06:49:39;40.93;;;32.43;;
8458;SDS011;4266;48.816;9.154;2023-05-16T06:52:05;38.87;;;31.07;;
8458;SDS011;4266;48.816;9.154;2023-05-16T06:54:31;40.50;;;30.97;;
8458;SDS011;4266;48.816;9.154;2023-05-16T06:56:57;35.13;;;29.10;;
8458;SDS011;4266;48.816;9.154;2023-05-16T06:59:23;36.93;;;30.40;;
8458;SDS011;4266;48.816;9.154;2023-05-16T07:01:48;32.80;;;27.97;;
8458;SDS011;4266;48.816;9.154;2023-05-16T07:04:15;32.83;;;26.63;;
8458;SDS011;4266;48.816;9.154;2023-05-16T07:06:40;32.87;;;27.07;;
8458;SDS011;4266;48.816;9.154;2023-05-16T07:09:06;32.40;;;26.90;;
8458;SDS011;4266;48.816;9.154;2023-05-16T07:11:32;31.23;;;25.40;;
8458;SDS011;4266;48.816;9.154;2023-05-16T07:13:57;30.80;;;23.30;;
8458;SDS011;4266;48.816;9.154;2023-05-16T07:16:23;27.77;;;22.70;;
8458;SDS011;4266;48.816;9.154;2023-05-16T07:18:49;22.43;;;20.03;;
8458;SDS011;4266;48.816;9.154;2023-05-16T07:21:14;20.67;;;18.53;;
8458;SDS011;4266;48.816;9.154;2023-05-16T07:23:40;19.57;;;17.00;;
8458;SDS011;4266;48.816;9.154;2023-05-16T07:26:06;19.23;;;17.23;;
8458;SDS011;4266;48.816;9.154;2023-05-16T07:28:32;16.53;;;14.80;;
8458;SDS011;4266;48.816;9.154;2023-05-16T07:30:58;16.20;;;14.70;;
8458;SDS011;4266;48.816;9.154;2023-05-16T07:33:24;15.77;;;14.27;;
8458;SDS011;4266;48.816;9.154;2023-05-16T07:35:50;15.27;;;13.13;;
8458;SDS011;4266;48.816;9.154;2023-05-16T07:38:16;14.90;;;13.40;;
8458;SDS011;4266;48.816;9.154;2023-05-16T07:40:46;13.13;;;11.93;;
8458;SDS011;4266;48.816;9.154;2023-05-16T07:43:12;13.13;;;11.83;;
8458;SDS011;4266;48.816;9.154;2023-05-16T07:45:37;12.77;;;11.63;;
8458;SDS011;4266;48.816;9.154;2023-05-16T07:48:03;14.13;;;12.93;;
8458;SDS011;4266;48.816;9.154;2023-05-16T07:50:30;13.00;;;11.90;;
8458;SDS011;4266;48.816;9.154;2023-05-16T07:52:55;12.97;;;11.77;;
8458;SDS011;4266;48.816;9.154;2023-05-16T07:55:22;14.00;;;12.80;;
8458;SDS011;4266;48.816;9.154;2023-05-16T07:57:48;15.87;;;12.03;;
8458;SDS011;4266;48.816;9.154;2023-05-16T08:00:14;13.33;;;12.07;;
8458;SDS011;4266;48.816;9.154;2023-05-16T08:02:41;13.73;;;12.43;;
8458;SDS011;4266;48.816;9.154;2023-05-16T08:05:07;13.87;;;12.67;;
8458;SDS011;4266;48.816;9.154;2023-05-16T08:07:33;13.87;;;12.73;;
8458;SDS011;4266;48.816;9.154;2023-05-16T08:09:59;14.27;;;12.97;;
8458;SDS011;4266;48.816;9.154;2023-05-16T08:12:25;15.57;;;14.17;;
8458;SDS011;4266;48.816;9.154;2023-05-16T08:14:50;16.70;;;15.00;;
8458;SDS011;4266;48.816;9.154;2023-05-16T08:17:16;16.00;;;14.50;;
8458;SDS011;4266;48.816;9.154;2023-05-16T08:19:42;16.17;;;14.57;;
8458;SDS011;4266;48.816;9.154;2023-05-16T08:22:08;16.40;;;14.90;;
8458;SDS011;4266;48.816;9.154;2023-05-16T08:24:34;16.83;;;15.23;;
8458;SDS011;4266;48.816;9.154;2023-05-16T08:27:00;16.10;;;14.50;;
8458;SDS011;4266;48.816;9.154;2023-05-16T08:29:26;16.83;;;15.07;;
8458;SDS011;4266;48.816;9.154;2023-05-16T08:31:52;16.30;;;14.90;;
8458;SDS011;4266;48.816;9.154;2023-05-16T08:34:17;16.80;;;15.20;;
8458;SDS011;4266;48.816;9.154;2023-05-16T08:36:43;18.67;;;16.77;;
8458;SDS011;4266;48.816;9.154;2023-05-16T08:39:09;19.27;;;16.73;;
8458;SDS011;4266;48.816;9.154;2023-05-16T08:41:35;18.87;;;17.07;;
8458;SDS011;4266;48.816;9.154;2023-05-16T08:44:01;18.10;;;16.27;;
8458;SDS011;4266;48.816;9.154;2023-05-16T08:46:27;19.53;;;16.90;;
8458;SDS011;4266;48.816;9.154;2023-05-16T08:48:52;19.27;;;17.27;;
8458;SDS011;4266;48.816;9.154;2023-05-16T08:51:18;19.03;;;17.20;;
8458;SDS011;4266;48.816;9.154;2023-05-16T08:53:47;19.67;;;17.63;;
8458;SDS011;4266;48.816;9.154;2023-05-16T08:56:11;19.53;;;17.53;;
8458;SDS011;4266;48.816;9.154;2023-05-16T08:58:36;22.17;;;19.53;;
8458;SDS011;4266;48.816;9.154;2023-05-16T09:01:03;20.20;;;18.10;;
8458;SDS011;4266;48.816;9.154;2023-05-16T09:03:28;22.83;;;20.43;;
8458;SDS011;4266;48.816;9.154;2023-05-16T09:05:54;21.47;;;19.20;;
8458;SDS011;4266;48.816;9.154;2023-05-16T09:08:19;22.70;;;20.30;;
8458;SDS011;4266;48.816;9.154;2023-05-16T09:10:45;22.00;;;19.60;;
8458;SDS011;4266;48.816;9.154;2023-05-16T09:13:11;23.33;;;20.83;;
8458;SDS011;4266;48.816;9.154;2023-05-16T09:15:37;24.13;;;21.63;;
8458;SDS011;4266;48.816;9.154;2023-05-16T09:18:02;24.50;;;21.60;;
8458;SDS011;4266;48.816;9.154;2023-05-16T09:20:28;24.63;;;22.03;;
8458;SDS011;4266;48.816;9.154;2023-05-16T09:22:56;25.43;;;22.73;;
8458;SDS011;4266;48.816;9.154;2023-05-16T09:25:21;25.93;;;22.83;;
8458;SDS011;4266;48.816;9.154;2023-05-16T09:27:47;25.63;;;23.03;;
8458;SDS011;4266;48.816;9.154;2023-05-16T09:30:13;26.60;;;23.83;;
8458;SDS011;4266;48.816;9.154;2023-05-16T09:32:42;25.40;;;21.90;;
8458;SDS011;4266;48.816;9.154;2023-05-16T09:35:06;26.30;;;23.37;;
8458;SDS011;4266;48.816;9.154;2023-05-16T09:37:33;25.80;;;23.03;;
8458;SDS011;4266;48.816;9.154;2023-05-16T09:39:59;26.30;;;23.53;;
8458;SDS011;4266;48.816;9.154;2023-05-16T09:42:24;26.17;;;23.53;;
8458;SDS011;4266;48.816;9.154;2023-05-16T09:44:51;25.67;;;22.83;;
8458;SDS011;4266;48.816;9.154;2023-05-16T09:47:16;25.53;;;22.93;;
8458;SDS011;4266;48.816;9.154;2023-05-16T09:49:43;25.30;;;22.60;;
8458;SDS011;4266;48.816;9.154;2023-05-16T09:52:09;27.80;;;23.57;;
8458;SDS011;4266;48.816;9.154;2023-05-16T09:54:35;24.73;;;21.50;;
8458;SDS011;4266;48.816;9.154;2023-05-16T09:57:00;24.63;;;21.20;;
8458;SDS011;4266;48.816;9.154;2023-05-16T09:59:27;24.93;;;21.67;;
8458;SDS011;4266;48.816;9.154;2023-05-16T10:01:53;23.73;;;20.87;;
8458;SDS011;4266;48.816;9.154;2023-05-16T10:04:19;24.30;;;21.33;;
8458;SDS011;4266;48.816;9.154;2023-05-16T10:06:45;23.40;;;19.83;;
8458;SDS011;4266;48.816;9.154;2023-05-16T10:09:11;21.60;;;19.30;;
8458;SDS011;4266;48.816;9.154;2023-05-16T10:11:37;22.27;;;19.30;;
8458;SDS011;4266;48.816;9.154;2023-05-16T10:14:02;20.73;;;18.63;;
8458;SDS011;4266;48.816;9.154;2023-05-16T10:16:27;20.95;;;18.75;;
8458;SDS011;4266;48.816;9.154;2023-05-16T10:18:53;22.03;;;18.70;;
8458;SDS011;4266;48.816;9.154;2023-05-16T10:21:19;19.52;;;17.73;;
8458;SDS011;4266;48.816;9.154;2023-05-16T10:23:46;23.62;;;18.45;;
8458;SDS011;4266;48.816;9.154;2023-05-16T10:26:10;20.75;;;18.58;;
8458;SDS011;4266;48.816;9.154;2023-05-16T10:28:36;19.90;;;17.85;;
8458;SDS011;4266;48.816;9.154;2023-05-16T10:31:01;25.12;;;18.87;;
8458;SDS011;4266;48.816;9.154;2023-05-16T10:33:27;19.50;;;17.55;;
8458;SDS011;4266;48.816;9.154;2023-05-16T10:35:54;20.58;;;18.35;;
8458;SDS011;4266;48.816;9.154;2023-05-16T10:38:18;22.73;;;19.47;;
8458;SDS011;4266;48.816;9.154;2023-05-16T10:40:45;21.10;;;18.90;;
8458;SDS011;4266;48.816;9.154;2023-05-16T10:43:12;22.20;;;19.10;;
8458;SDS011;4266;48.816;9.154;2023-05-16T10:45:39;22.43;;;18.63;;
8458;SDS011;4266;48.816;9.154;2023-05-16T10:48:04;20.80;;;17.63;;
8458;SDS011;4266;48.816;9.154;2023-05-16T10:53:10;20.23;;;17.77;;
8458;SDS011;4266;48.816;9.154;2023-05-16T10:58:40;20.27;;;17.27;;
8458;SDS011;4266;48.816;9.154;2023-05-16T11:06:21;18.33;;;16.50;;
8458;SDS011;4266;48.816;9.154;2023-05-16T11:11:37;17.47;;;15.67;;
8458;SDS011;4266;48.816;9.154;2023-05-16T11:13:58;17.27;;;15.27;;
8458;SDS011;4266;48.816;9.154;2023-05-16T11:16:26;18.57;;;14.07;;
8458;SDS011;4266;48.816;9.154;2023-05-16T11:18:52;14.60;;;13.00;;
8458;SDS011;4266;48.816;9.154;2023-05-16T11:21:17;13.80;;;12.40;;
8458;SDS011;4266;48.816;9.154;2023-05-16T11:23:45;12.30;;;11.17;;
8458;SDS011;4266;48.816;9.154;2023-05-16T11:26:10;12.73;;;10.93;;
8458;SDS011;4266;48.816;9.154;2023-05-16T11:28:35;11.30;;;10.27;;
8458;SDS011;4266;48.816;9.154;2023-05-16T11:31:02;10.53;;;9.53;;
8458;SDS011;4266;48.816;9.154;2023-05-16T11:33:29;10.07;;;9.07;;
8458;SDS011;4266;48.816;9.154;2023-05-16T11:35:59;9.97;;;9.00;;
8458;SDS011;4266;48.816;9.154;2023-05-16T11:38:28;10.10;;;9.10;;
8458;SDS011;4266;48.816;9.154;2023-05-16T11:40:52;10.30;;;9.30;;
8458;SDS011;4266;48.816;9.154;2023-05-16T11:43:17;9.50;;;8.60;;
8458;SDS011;4266;48.816;9.154;2023-05-16T11:45:43;8.70;;;7.93;;
8458;SDS011;4266;48.816;9.154;2023-05-16T11:48:09;9.93;;;8.30;;
8458;SDS011;4266;48.816;9.154;2023-05-16T11:50:35;9.37;;;8.43;;
8458;SDS011;4266;48.816;9.154;2023-05-16T11:53:00;9.73;;;8.93;;
8458;SDS011;4266;48.816;9.154;2023-05-16T11:55:27;9.33;;;8.43;;
8458;SDS011;4266;48.816;9.154;2023-05-16T11:57:52;9.23;;;8.43;;
8458;SDS011;4266;48.816;9.154;2023-05-16T12:00:22;9.63;;;8.73;;
8458;SDS011;4266;48.816;9.154;2023-05-16T12:02:47;10.60;;;8.80;;
8458;SDS011;4266;48.816;9.154;2023-05-16T12:05:13;10.03;;;9.13;;
8458;SDS011;4266;48.816;9.154;2023-05-16T12:07:39;9.00;;;8.13;;
8458;SDS011;4266;48.816;9.154;2023-05-16T12:10:05;10.60;;;9.53;;
8458;SDS011;4266;48.816;9.154;2023-05-16T12:12:33;14.17;;;12.80;;
8458;SDS011;4266;48.816;9.154;2023-05-16T12:14:59;10.20;;;9.20;;
8458;SDS011;4266;48.816;9.154;2023-05-16T12:17:25;9.73;;;8.87;;
8458;SDS011;4266;48.816;9.154;2023-05-16T12:19:51;9.13;;;8.27;;
8458;SDS011;4266;48.816;9.154;2023-05-16T12:22:18;8.30;;;7.57;;
8458;SDS011;4266;48.816;9.154;2023-05-16T12:24:44;7.70;;;7.10;;
8458;SDS011;4266;48.816;9.154;2023-05-16T12:27:10;8.10;;;7.30;;
8458;SDS011;4266;48.816;9.154;2023-05-16T12:29:37;7.77;;;6.97;;
8458;SDS011;4266;48.816;9.154;2023-05-16T12:32:02;7.07;;;6.40;;
8458;SDS011;4266;48.816;9.154;2023-05-16T12:34:29;7.40;;;6.40;;
8458;SDS011;4266;48.816;9.154;2023-05-16T12:36:54;6.47;;;5.97;;
8458;SDS011;4266;48.816;9.154;2023-05-16T12:39:20;6.83;;;5.80;;
8458;SDS011;4266;48.816;9.154;2023-05-16T12:41:46;6.37;;;5.77;;
8458;SDS011;4266;48.816;9.154;2023-05-16T12:44:13;5.37;;;4.90;;
8458;SDS011;4266;48.816;9.154;2023-05-16T12:46:42;5.77;;;4.57;;
8458;SDS011;4266;48.816;9.154;2023-05-16T12:49:08;5.00;;;4.47;;
8458;SDS011;4266;48.816;9.154;2023-05-16T12:51:34;4.50;;;4.30;;
8458;SDS011;4266;48.816;9.154;2023-05-16T12:54:06;4.40;;;4.10;;
8458;SDS011;4266;48.816;9.154;2023-05-16T12:56:25;4.83;;;4.37;;
8458;SDS011;4266;48.816;9.154;2023-05-16T12:58:52;5.03;;;4.63;;
8458;SDS011;4266;48.816;9.154;2023-05-16T13:01:17;5.27;;;4.77;;
8458;SDS011;4266;48.816;9.154;2023-05-16T13:03:43;5.30;;;4.40;;
8458;SDS011;4266;48.816;9.154;2023-05-16T13:06:10;4.63;;;4.23;;
8458;SDS011;4266;48.816;9.154;2023-05-16T13:08:38;4.20;;;3.80;;
8458;SDS011;4266;48.816;9.154;2023-05-16T13:11:04;6.57;;;4.40;;
8458;SDS011;4266;48.816;9.154;2023-05-16T13:13:30;8.03;;;3.93;;
8458;SDS011;4266;48.816;9.154;2023-05-16T13:15:56;4.07;;;3.73;;
8458;SDS011;4266;48.816;9.154;2023-05-16T13:18:22;4.97;;;3.90;;
8458;SDS011;4266;48.816;9.154;2023-05-16T13:20:49;4.33;;;3.70;;
8458;SDS011;4266;48.816;9.154;2023-05-16T13:23:15;4.00;;;3.43;;
8458;SDS011;4266;48.816;9.154;2023-05-16T13:25:40;3.60;;;3.40;;
8458;SDS011;4266;48.816;9.154;2023-05-16T13:28:06;4.50;;;4.10;;
8458;SDS011;4266;48.816;9.154;2023-05-16T13:30:32;5.50;;;3.50;;
8458;SDS011;4266;48.816;9.154;2023-05-16T13:32:58;3.80;;;3.50;;
8458;SDS011;4266;48.816;9.154;2023-05-16T13:35:24;5.47;;;3.70;;
8458;SDS011;4266;48.816;9.154;2023-05-16T13:37:50;4.67;;;3.40;;
8458;SDS011;4266;48.816;9.154;2023-05-16T13:40:16;4.90;;;3.17;;
8458;SDS011;4266;48.816;9.154;2023-05-16T13:42:41;3.27;;;3.07;;
8458;SDS011;4266;48.816;9.154;2023-05-16T13:45:07;5.67;;;3.90;;
8458;SDS011;4266;48.816;9.154;2023-05-16T13:47:34;6.00;;;3.97;;
8458;SDS011;4266;48.816;9.154;2023-05-16T13:50:06;3.80;;;3.50;;
8458;SDS011;4266;48.816;9.154;2023-05-16T13:52:40;3.83;;;3.53;;
8458;SDS011;4266;48.816;9.154;2023-05-16T13:55:06;4.17;;;3.57;;
8458;SDS011;4266;48.816;9.154;2023-05-16T13:57:32;3.97;;;3.53;;
8458;SDS011;4266;48.816;9.154;2023-05-16T13:59:59;4.00;;;3.50;;
8458;SDS011;4266;48.816;9.154;2023-05-16T14:02:26;3.93;;;3.13;;
8458;SDS011;4266;48.816;9.154;2023-05-16T14:04:51;3.73;;;3.20;;
8458;SDS011;4266;48.816;9.154;2023-05-16T14:07:17;3.73;;;3.40;;
8458;SDS011;4266;48.816;9.154;2023-05-16T14:09:43;3.80;;;3.50;;
8458;SDS011;4266;48.816;9.154;2023-05-16T14:12:08;3.90;;;3.60;;
8458;SDS011;4266;48.816;9.154;2023-05-16T14:14:34;4.17;;;3.87;;
8458;SDS011;4266;48.816;9.154;2023-05-16T14:17:00;3.67;;;3.07;;
8458;SDS011;4266;48.816;9.154;2023-05-16T14:19:26;4.20;;;3.77;;
8458;SDS011;4266;48.816;9.154;2023-05-16T14:21:52;3.20;;;3.00;;
8458;SDS011;4266;48.816;9.154;2023-05-16T14:24:17;5.13;;;3.23;;
8458;SDS011;4266;48.816;9.154;2023-05-16T14:26:43;3.57;;;3.27;;
8458;SDS011;4266;48.816;9.154;2023-05-16T14:29:09;4.23;;;3.07;;
8458;SDS011;4266;48.816;9.154;2023-05-16T14:31:35;4.00;;;3.60;;
8458;SDS011;4266;48.816;9.154;2023-05-16T14:34:01;3.33;;;3.03;;
8458;SDS011;4266;48.816;9.154;2023-05-16T14:36:27;6.30;;;3.47;;
8458;SDS011;4266;48.816;9.154;2023-05-16T14:38:52;3.43;;;3.13;;
8458;SDS011;4266;48.816;9.154;2023-05-16T14:41:18;3.20;;;2.83;;
8458;SDS011;4266;48.816;9.154;2023-05-16T14:43:44;3.53;;;2.70;;
8458;SDS011;4266;48.816;9.154;2023-05-16T14:46:10;3.30;;;3.00;;
8458;SDS011;4266;48.816;9.154;2023-05-16T14:48:36;2.93;;;2.63;;
8458;SDS011;4266;48.816;9.154;2023-05-16T14:51:03;3.47;;;2.63;;
8458;SDS011;4266;48.816;9.154;2023-05-16T14:53:30;4.70;;;2.87;;
8458;SDS011;4266;48.816;9.154;2023-05-16T14:55:55;5.83;;;3.00;;
8458;SDS011;4266;48.816;9.154;2023-05-16T14:58:21;4.43;;;2.60;;
8458;SDS011;4266;48.816;9.154;2023-05-16T15:00:47;2.57;;;2.23;;
8458;SDS011;4266;48.816;9.154;2023-05-16T15:03:12;5.27;;;2.73;;